Time;durP1;ratioP1;P1;durP2;ratioP2;P2;SDS_P1;SDS_P2;PMS_P1;PMS_P2;Temp;Humidity;BMP_temperature;BMP_pressure;BME280_temperature;BME280_humidity;BME280_pressure;Samples;Min_cycle;Max_cycle;Signal;HPM_P1;HPM_P2
2023/04/27 00:01:16;;;;;;;9.90;6.88;;;5.80;99.90;;;;;;7567807;19;20073;-70
2023/04/27 00:03:49;;;;;;;15.95;7.15;;;5.60;99.90;;;;;;7576658;19;20007;-67
2023/04/27 00:06:22;;;;;;;13.88;8.27;;;5.50;99.90;;;;;;7575421;19;20025;-70
2023/04/27 00:08:55;;;;;;;13.07;8.05;;;5.50;99.90;;;;;;7582405;19;20018;-68
2023/04/27 00:11:27;;;;;;;15.98;8.23;;;5.30;99.90;;;;;;7578038;19;20495;-70
2023/04/27 00:14:00;;;;;;;15.18;7.43;;;5.40;99.90;;;;;;7569791;19;20856;-68
2023/04/27 00:16:32;;;;;;;14.40;7.35;;;5.40;99.90;;;;;;7572059;19;20011;-68
2023/04/27 00:19:04;;;;;;;10.85;7.05;;;5.40;99.90;;;;;;7588832;19;20657;-70
2023/04/27 00:21:36;;;;;;;14.13;7.03;;;5.40;99.90;;;;;;7578315;19;20049;-70
2023/04/27 00:24:08;;;;;;;10.27;7.07;;;5.40;99.90;;;;;;7583608;19;20018;-70
2023/04/27 00:26:41;;;;;;;17.92;7.18;;;5.40;99.90;;;;;;7590859;19;20082;-70
2023/04/27 00:29:13;;;;;;;12.45;7.50;;;5.40;99.90;;;;;;7583450;19;20022;-67
2023/04/27 00:31:45;;;;;;;13.85;7.10;;;5.40;99.90;;;;;;7595897;19;20026;-70
2023/04/27 00:34:19;;;;;;;12.38;7.18;;;5.40;99.90;;;;;;7576378;19;20022;-68
2023/04/27 00:36:52;;;;;;;13.77;6.68;;;5.40;99.90;;;;;;7575141;19;20018;-70
2023/04/27 00:39:25;;;;;;;15.70;7.15;;;5.40;99.90;;;;;;7596228;19;20018;-68
2023/04/27 00:41:57;;;;;;;16.67;7.88;;;5.40;99.90;;;;;;7603574;19;20010;-68
2023/04/27 00:44:31;;;;;;;13.55;7.57;;;5.50;99.90;;;;;;7581056;19;20043;-69
2023/04/27 00:47:04;;;;;;;13.32;8.10;;;5.50;99.90;;;;;;7604283;19;20011;-68
2023/04/27 00:49:36;;;;;;;12.13;8.25;;;5.30;99.90;;;;;;7593333;19;20512;-67
2023/04/27 00:52:09;;;;;;;12.88;7.63;;;5.20;99.90;;;;;;7599163;19;20094;-70
2023/04/27 00:54:41;;;;;;;11.90;7.30;;;5.20;99.90;;;;;;7600423;19;20025;-70
2023/04/27 00:57:14;;;;;;;12.32;7.78;;;5.30;99.90;;;;;;7598502;19;20018;-68
2023/04/27 00:59:48;;;;;;;10.85;6.80;;;5.30;99.90;;;;;;7576147;19;20011;-69
2023/04/27 01:02:21;;;;;;;12.90;7.60;;;5.40;99.90;;;;;;7573038;19;20030;-67
2023/04/27 01:04:54;;;;;;;16.02;7.50;;;5.40;99.90;;;;;;7580834;19;20006;-70
2023/04/27 01:07:26;;;;;;;11.10;7.78;;;5.50;99.90;;;;;;7585713;19;20020;-67
2023/04/27 01:09:59;;;;;;;13.68;6.72;;;5.50;99.90;;;;;;7590410;19;20021;-65
2023/04/27 01:12:31;;;;;;;12.77;7.35;;;5.50;99.90;;;;;;7606319;19;20014;-68
2023/04/27 01:15:05;;;;;;;18.25;7.53;;;5.50;99.90;;;;;;7596333;19;20018;-70
2023/04/27 01:17:38;;;;;;;11.40;7.68;;;5.60;99.90;;;;;;7604320;19;20018;-69
2023/04/27 01:20:11;;;;;;;11.93;7.63;;;5.50;99.90;;;;;;7582184;19;20404;-66
2023/04/27 01:22:43;;;;;;;15.90;7.95;;;5.50;99.90;;;;;;7586550;19;20022;-67
2023/04/27 01:25:15;;;;;;;13.90;8.00;;;5.50;99.90;;;;;;7562695;19;20602;-69
2023/04/27 01:27:48;;;;;;;12.77;8.07;;;5.50;99.90;;;;;;7594308;19;20030;-67
2023/04/27 01:30:21;;;;;;;13.85;8.35;;;5.50;99.90;;;;;;7605091;19;20489;-67
2023/04/27 01:32:53;;;;;;;15.52;8.38;;;5.40;99.90;;;;;;7593209;19;20870;-70
2023/04/27 01:35:25;;;;;;;11.38;6.88;;;5.30;99.90;;;;;;7594557;19;20613;-69
2023/04/27 01:38:03;;;;;;;15.65;7.60;;;5.30;99.90;;;;;;7590946;19;21139;-70
2023/04/27 01:40:36;;;;;;;15.02;8.02;;;5.40;99.90;;;;;;7605526;19;20773;-68
2023/04/27 01:43:08;;;;;;;11.52;7.47;;;5.40;99.90;;;;;;7593253;19;20647;-68
2023/04/27 01:45:41;;;;;;;12.02;7.18;;;5.50;99.90;;;;;;7605142;19;20077;-68
2023/04/27 01:48:13;;;;;;;15.25;8.18;;;5.50;99.90;;;;;;7603105;19;20022;-69
2023/04/27 01:50:47;;;;;;;11.95;8.32;;;5.50;99.90;;;;;;7591103;19;20018;-70
2023/04/27 01:53:20;;;;;;;12.98;7.95;;;5.50;99.90;;;;;;7593511;19;20022;-68
2023/04/27 01:55:53;;;;;;;12.00;8.15;;;5.50;99.90;;;;;;7600260;19;20063;-70
2023/04/27 01:58:25;;;;;;;11.87;7.63;;;5.50;99.90;;;;;;7598364;19;20018;-70
2023/04/27 02:00:58;;;;;;;11.93;6.75;;;5.60;99.90;;;;;;7597651;19;20014;-67
2023/04/27 02:03:31;;;;;;;14.95;7.47;;;5.60;99.90;;;;;;7590728;19;20019;-67
2023/04/27 02:06:03;;;;;;;13.80;7.10;;;5.60;99.90;;;;;;7587526;19;20019;-67
2023/04/27 02:08:38;;;;;;;10.93;6.68;;;5.50;99.90;;;;;;7587639;19;20021;-68
2023/04/27 02:11:12;;;;;;;10.95;6.93;;;5.50;99.90;;;;;;7585142;19;20015;-68
2023/04/27 02:13:45;;;;;;;14.85;7.25;;;5.50;99.90;;;;;;7574199;19;20030;-70
2023/04/27 02:16:17;;;;;;;14.35;8.20;;;5.50;99.90;;;;;;7583090;19;20022;-70
2023/04/27 02:18:52;;;;;;;10.45;7.60;;;5.50;99.90;;;;;;7599498;19;20030;-69
2023/04/27 02:21:27;;;;;;;14.80;7.60;;;5.30;99.90;;;;;;7584712;19;20018;-67
2023/04/27 02:24:00;;;;;;;12.63;8.15;;;5.30;99.90;;;;;;7595950;19;21301;-69
2023/04/27 02:26:32;;;;;;;14.65;7.90;;;5.30;99.90;;;;;;7588226;19;20607;-70
2023/04/27 02:29:07;;;;;;;9.63;7.13;;;5.30;99.90;;;;;;7585734;19;20733;-68
2023/04/27 02:31:40;;;;;;;10.82;6.97;;;5.30;99.90;;;;;;7588031;19;20018;-68
2023/04/27 02:34:12;;;;;;;17.27;8.05;;;5.20;99.90;;;;;;7590894;19;20722;-67
2023/04/27 02:36:45;;;;;;;18.90;8.43;;;5.20;99.90;;;;;;7595850;19;20022;-68
2023/04/27 02:39:17;;;;;;;9.93;7.35;;;5.20;99.90;;;;;;7590838;19;20106;-68
2023/04/27 02:41:50;;;;;;;12.97;8.10;;;5.10;99.90;;;;;;7594723;19;20032;-69
2023/04/27 02:44:22;;;;;;;12.65;8.15;;;5.00;99.90;;;;;;7586847;19;20021;-68
2023/04/27 02:46:55;;;;;;;12.30;6.97;;;5.00;99.90;;;;;;7590832;19;20018;-69
2023/04/27 02:49:27;;;;;;;16.50;8.35;;;5.00;99.90;;;;;;7589626;19;20015;-69
2023/04/27 02:52:00;;;;;;;14.13;7.88;;;4.90;99.90;;;;;;7574899;19;20015;-67
2023/04/27 02:54:33;;;;;;;13.93;8.32;;;4.80;99.90;;;;;;7578183;19;20030;-68
2023/04/27 02:57:05;;;;;;;12.05;7.25;;;4.80;99.90;;;;;;7601950;19;20090;-68
2023/04/27 02:59:37;;;;;;;11.90;7.57;;;4.70;99.90;;;;;;7594906;19;20018;-69
2023/04/27 03:02:09;;;;;;;20.13;8.38;;;4.70;99.90;;;;;;7580656;19;20980;-68
2023/04/27 03:04:42;;;;;;;19.60;7.93;;;4.50;99.90;;;;;;7585234;19;20363;-69
2023/04/27 03:07:14;;;;;;;14.53;8.30;;;4.50;99.90;;;;;;7587794;19;20025;-69
2023/04/27 03:09:47;;;;;;;13.43;7.47;;;4.50;99.90;;;;;;7582294;19;20023;-69
2023/04/27 03:12:19;;;;;;;14.15;7.38;;;4.50;99.90;;;;;;7599478;19;20014;-67
2023/04/27 03:14:51;;;;;;;17.15;7.57;;;4.50;99.90;;;;;;7576287;19;20015;-68
2023/04/27 03:17:23;;;;;;;14.73;7.50;;;4.60;99.90;;;;;;7594267;19;20014;-69
2023/04/27 03:19:56;;;;;;;12.65;7.13;;;4.60;99.90;;;;;;7586942;19;20018;-70
2023/04/27 03:22:28;;;;;;;10.50;6.82;;;4.60;99.90;;;;;;7601628;19;20028;-68
2023/04/27 03:25:00;;;;;;;12.57;7.68;;;4.60;99.90;;;;;;7596854;19;20093;-67
2023/04/27 03:27:33;;;;;;;12.82;7.75;;;4.60;99.90;;;;;;7572601;19;20470;-70
2023/04/27 03:30:06;;;;;;;12.23;7.10;;;4.60;99.90;;;;;;7582533;19;20056;-68
2023/04/27 03:32:38;;;;;;;10.02;7.50;;;4.60;99.90;;;;;;7558659;19;20425;-69
2023/04/27 03:35:11;;;;;;;11.10;7.20;;;4.70;99.90;;;;;;7555285;19;20018;-69
2023/04/27 03:37:44;;;;;;;12.23;7.57;;;4.70;99.90;;;;;;7587296;19;20010;-67
2023/04/27 03:40:17;;;;;;;;;;;4.60;99.90;;;;;;7589034;19;20287;-69
2023/04/27 03:42:49;;;;;;;10.75;7.25;;;4.60;99.90;;;;;;7585788;19;19942;-69
2023/04/27 03:45:23;;;;;;;12.15;7.22;;;4.60;99.90;;;;;;7540638;19;20343;-68
2023/04/27 03:47:56;;;;;;;13.25;7.07;;;4.60;99.90;;;;;;7559148;19;20154;-67
2023/04/27 03:50:28;;;;;;;13.43;7.70;;;4.70;99.90;;;;;;7548780;19;20665;-69
2023/04/27 03:53:01;;;;;;;13.57;7.78;;;4.70;99.90;;;;;;7577273;19;20094;-68
2023/04/27 03:55:37;;;;;;;10.77;6.87;;;4.70;99.90;;;;;;7546376;19;20014;-68
2023/04/27 03:58:11;;;;;;;13.18;7.82;;;4.60;99.90;;;;;;7567763;19;20239;-72
2023/04/27 04:00:56;;;;;;;12.27;7.85;;;4.60;99.90;;;;;;7553147;19;20010;-69
2023/04/27 04:03:28;;;;;;;13.73;8.10;;;4.60;99.90;;;;;;7585414;19;20019;-68
2023/04/27 04:06:02;;;;;;;13.57;7.70;;;4.50;99.90;;;;;;7580236;19;21461;-68
2023/04/27 04:08:34;;;;;;;12.13;8.25;;;4.60;99.90;;;;;;7551015;19;20271;-69
2023/04/27 04:11:07;;;;;;;11.95;7.88;;;4.70;99.90;;;;;;7547548;19;20491;-67
2023/04/27 04:13:41;;;;;;;15.32;7.50;;;4.70;99.90;;;;;;7536270;19;20011;-69
2023/04/27 04:16:13;;;;;;;15.73;8.30;;;4.80;99.90;;;;;;7576044;19;20018;-67
2023/04/27 04:18:46;;;;;;;16.83;9.00;;;4.90;99.90;;;;;;7552953;19;20056;-71
2023/04/27 04:21:19;;;;;;;18.73;8.85;;;4.90;99.90;;;;;;7527433;19;20021;-71
2023/04/27 04:23:52;;;;;;;14.05;8.20;;;4.90;99.90;;;;;;7561730;19;20026;-74
2023/04/27 04:26:26;;;;;;;13.48;7.78;;;4.90;99.90;;;;;;7518901;19;21070;-73
2023/04/27 04:28:58;;;;;;;15.95;7.40;;;4.90;99.90;;;;;;7543338;19;20021;-73
2023/04/27 04:31:32;;;;;;;15.50;8.57;;;5.00;99.90;;;;;;7568144;19;20546;-72
2023/04/27 04:34:04;;;;;;;13.60;8.20;;;5.00;99.90;;;;;;7580727;19;20025;-73
2023/04/27 04:36:37;;;;;;;14.43;9.10;;;5.10;99.90;;;;;;7550970;19;20006;-72
2023/04/27 04:39:11;;;;;;;22.20;9.90;;;5.30;99.90;;;;;;7528649;19;20023;-76
2023/04/27 04:41:44;;;;;;;15.60;9.77;;;5.30;99.90;;;;;;7539801;19;20018;-73
2023/04/27 04:44:19;;;;;;;12.73;9.10;;;5.40;99.90;;;;;;7564223;19;20026;-73
2023/04/27 04:46:52;;;;;;;14.93;9.13;;;5.40;99.90;;;;;;7523783;19;20022;-73
2023/04/27 04:49:25;;;;;;;15.50;9.40;;;5.40;99.90;;;;;;7579451;19;20017;-73
2023/04/27 04:51:57;;;;;;;19.92;9.88;;;5.40;99.90;;;;;;7589874;19;20010;-73
2023/04/27 04:54:30;;;;;;;18.25;10.15;;;5.40;99.90;;;;;;7586013;19;20030;-73
2023/04/27 04:57:04;;;;;;;18.23;8.43;;;5.40;99.90;;;;;;7579272;19;20014;-73
2023/04/27 04:59:36;;;;;;;18.13;9.00;;;5.50;99.90;;;;;;7573375;19;20022;-71
2023/04/27 05:02:08;;;;;;;14.20;8.88;;;5.60;99.90;;;;;;7590529;19;20019;-72
2023/04/27 05:04:41;;;;;;;15.85;8.88;;;5.70;99.90;;;;;;7561616;19;20375;-72
2023/04/27 05:07:14;;;;;;;10.77;7.90;;;5.70;99.90;;;;;;7577271;19;20114;-71
2023/04/27 05:09:49;;;;;;;13.32;7.60;;;5.80;99.90;;;;;;7582148;19;20283;-73
2023/04/27 05:12:21;;;;;;;13.73;8.02;;;5.80;99.90;;;;;;7585626;19;20014;-73
2023/04/27 05:14:54;;;;;;;14.05;8.38;;;5.80;99.90;;;;;;7581881;19;20383;-72
2023/04/27 05:17:26;;;;;;;13.38;8.30;;;5.90;99.90;;;;;;7581203;19;20369;-73
2023/04/27 05:19:58;;;;;;;16.73;9.27;;;5.90;99.90;;;;;;7556986;19;20820;-71
2023/04/27 05:22:31;;;;;;;12.00;8.52;;;6.00;99.90;;;;;;7554713;19;20019;-73
2023/04/27 05:25:03;;;;;;;14.82;8.98;;;6.00;99.90;;;;;;7558909;19;20680;-71
2023/04/27 05:27:36;;;;;;;14.77;9.35;;;6.10;99.90;;;;;;7575712;19;20021;-71
2023/04/27 05:30:09;;;;;;;17.40;9.68;;;6.10;99.90;;;;;;7564243;19;20633;-73
2023/04/27 05:32:42;;;;;;;18.45;8.60;;;6.10;99.90;;;;;;7554329;19;20019;-72
2023/04/27 05:35:15;;;;;;;14.90;9.57;;;6.20;99.90;;;;;;7607206;19;20112;-73
2023/04/27 05:37:47;;;;;;;20.08;9.73;;;6.30;99.90;;;;;;7581938;19;20018;-72
2023/04/27 05:40:19;;;;;;;16.35;10.23;;;6.40;99.90;;;;;;7595862;19;20010;-72
2023/04/27 05:42:51;;;;;;;18.38;10.02;;;6.50;99.90;;;;;;7588852;19;20524;-73
2023/04/27 05:45:23;;;;;;;19.15;10.70;;;6.50;99.90;;;;;;7601668;19;22084;-72
2023/04/27 05:47:56;;;;;;;17.00;10.48;;;6.60;99.90;;;;;;7632958;19;20098;-71
2023/04/27 05:50:28;;;;;;;30.40;11.27;;;6.70;99.90;;;;;;7586660;19;20018;-73
2023/04/27 05:53:00;;;;;;;16.25;9.27;;;6.70;99.90;;;;;;7590245;19;20022;-72
2023/04/27 05:55:32;;;;;;;21.25;10.40;;;6.80;99.90;;;;;;7604430;19;20037;-72
2023/04/27 05:58:05;;;;;;;14.70;10.02;;;6.90;99.90;;;;;;7593857;19;20022;-73
2023/04/27 06:00:40;;;;;;;17.75;9.88;;;7.00;99.90;;;;;;7589330;19;20920;-73
2023/04/27 06:03:12;;;;;;;15.27;9.93;;;7.00;99.90;;;;;;7586147;19;20021;-73
2023/04/27 06:05:45;;;;;;;18.27;10.23;;;7.10;99.90;;;;;;7603991;19;20378;-72
2023/04/27 06:08:17;;;;;;;18.42;9.98;;;7.10;99.90;;;;;;7590577;19;20109;-73
2023/04/27 06:10:50;;;;;;;23.02;9.07;;;7.20;99.90;;;;;;7598778;19;20025;-72
2023/04/27 06:13:22;;;;;;;16.65;8.70;;;7.40;99.90;;;;;;7572838;19;21150;-73
2023/04/27 06:15:55;;;;;;;18.25;9.95;;;7.50;99.90;;;;;;7566331;19;20006;-74
2023/04/27 06:18:27;;;;;;;18.08;9.20;;;7.50;99.90;;;;;;7548878;19;20036;-72
2023/04/27 06:21:00;;;;;;;14.18;8.38;;;7.60;99.90;;;;;;7601820;19;20010;-73
2023/04/27 06:23:33;;;;;;;18.70;8.85;;;7.60;99.90;;;;;;7579885;19;20062;-73
2023/04/27 06:26:05;;;;;;;20.50;9.25;;;7.70;99.90;;;;;;7596402;19;20023;-73
2023/04/27 06:28:38;;;;;;;17.17;9.02;;;7.80;99.90;;;;;;7582836;19;20018;-71
2023/04/27 06:31:10;;;;;;;17.15;8.98;;;7.80;99.90;;;;;;7588502;19;20015;-72
2023/04/27 06:33:42;;;;;;;13.15;9.30;;;7.80;99.90;;;;;;7580036;19;20017;-74
2023/04/27 06:36:15;;;;;;;13.33;8.40;;;7.90;99.90;;;;;;7584653;19;20018;-71
2023/04/27 06:38:47;;;;;;;17.25;8.73;;;7.90;99.90;;;;;;7595410;19;20017;-74
2023/04/27 06:41:20;;;;;;;22.88;8.90;;;8.00;99.90;;;;;;7583364;19;20010;-72
2023/04/27 06:43:53;;;;;;;19.48;9.25;;;8.10;99.90;;;;;;7585647;19;20897;-72
2023/04/27 06:46:27;;;;;;;18.52;9.05;;;8.20;99.90;;;;;;7578987;19;20653;-74
2023/04/27 06:49:00;;;;;;;18.40;8.68;;;8.30;99.90;;;;;;7562005;19;20018;-73
2023/04/27 06:51:32;;;;;;;16.88;8.98;;;8.40;99.90;;;;;;7578475;19;20018;-73
2023/04/27 06:54:05;;;;;;;15.43;8.73;;;8.50;99.90;;;;;;7587201;19;20026;-72
2023/04/27 06:56:37;;;;;;;19.52;8.52;;;8.50;99.90;;;;;;7585756;19;20121;-72
2023/04/27 06:59:10;;;;;;;18.58;8.43;;;8.50;99.90;;;;;;7564194;19;20391;-73
2023/04/27 07:01:42;;;;;;;19.63;8.43;;;8.50;99.90;;;;;;7561095;19;20027;-72
2023/04/27 07:04:15;;;;;;;10.73;7.47;;;8.60;99.90;;;;;;7571547;19;20286;-73
2023/04/27 07:06:47;;;;;;;20.42;9.02;;;8.70;99.90;;;;;;7563755;19;20014;-73
2023/04/27 07:09:19;;;;;;;16.52;8.55;;;8.80;99.90;;;;;;7579408;19;20033;-73
2023/04/27 07:11:57;;;;;;;15.40;8.38;;;8.90;99.90;;;;;;7586977;19;20026;-72
2023/04/27 07:14:30;;;;;;;19.95;9.60;;;9.00;99.90;;;;;;7592560;19;20011;-73
2023/04/27 07:17:02;;;;;;;20.40;8.63;;;9.10;99.90;;;;;;7602309;19;20438;-72
2023/04/27 07:19:36;;;;;;;17.48;8.15;;;9.20;99.90;;;;;;7571278;19;20291;-74
2023/04/27 07:22:08;;;;;;;15.65;9.07;;;9.20;99.90;;;;;;7580943;19;20015;-70
2023/04/27 07:24:40;;;;;;;16.20;8.63;;;9.20;99.90;;;;;;7573949;19;20037;-74
2023/04/27 07:27:13;;;;;;;13.35;8.65;;;9.30;99.90;;;;;;7597240;19;20109;-72
2023/04/27 07:29:47;;;;;;;15.07;9.40;;;9.30;99.90;;;;;;7597802;19;20029;-72
2023/04/27 07:32:20;;;;;;;;;;;9.40;99.90;;;;;;7602708;19;20045;-73
2023/04/27 07:34:56;;;;;;;13.40;8.52;;;9.50;99.90;;;;;;7584549;19;19915;-72
2023/04/27 07:37:29;;;;;;;19.25;9.00;;;9.50;99.90;;;;;;7567171;19;20048;-72
2023/04/27 07:40:04;;;;;;;18.58;9.77;;;9.60;99.90;;;;;;7576676;19;20022;-73
2023/04/27 07:42:38;;;;;;;18.35;9.43;;;9.70;99.90;;;;;;7566053;19;20006;-73
2023/04/27 07:45:10;;;;;;;13.98;9.05;;;9.80;99.90;;;;;;7591936;19;20025;-72
2023/04/27 07:47:43;;;;;;;14.63;9.13;;;9.80;99.90;;;;;;7586337;19;20093;-73
2023/04/27 07:50:16;;;;;;;16.90;9.32;;;9.90;99.90;;;;;;7595848;19;20034;-71
2023/04/27 07:52:48;;;;;;;16.23;8.30;;;10.00;99.90;;;;;;7590727;19;21515;-72
2023/04/27 07:55:22;;;;;;;12.73;8.57;;;10.20;99.90;;;;;;7589750;19;20082;-74
2023/04/27 07:57:55;;;;;;;14.38;8.73;;;10.30;99.90;;;;;;7584997;19;21638;-72
2023/04/27 08:00:28;;;;;;;16.00;8.60;;;10.40;99.90;;;;;;7583181;19;20486;-73
2023/04/27 08:03:00;;;;;;;15.75;8.40;;;10.50;99.90;;;;;;7596110;19;20018;-74
2023/04/27 08:05:33;;;;;;;14.57;8.45;;;10.60;99.20;;;;;;7597028;19;21431;-73
2023/04/27 08:08:06;;;;;;;18.20;9.57;;;10.60;99.20;;;;;;7586497;19;20025;-73
2023/04/27 08:10:38;;;;;;;21.70;9.27;;;10.60;98.80;;;;;;7573142;19;20035;-72
2023/04/27 08:13:11;;;;;;;15.25;9.45;;;10.60;98.60;;;;;;7580793;19;20018;-73
2023/04/27 08:15:43;;;;;;;21.67;8.77;;;10.60;99.30;;;;;;7589661;19;20094;-74
2023/04/27 08:18:16;;;;;;;15.55;9.15;;;10.70;99.20;;;;;;7581742;19;20023;-72
2023/04/27 08:20:48;;;;;;;16.58;8.50;;;10.60;98.90;;;;;;7585353;19;20023;-71
2023/04/27 08:23:21;;;;;;;16.65;8.73;;;10.80;99.60;;;;;;7590747;19;20022;-71
2023/04/27 08:25:53;;;;;;;17.83;8.95;;;10.90;98.70;;;;;;7580688;19;20022;-74
2023/04/27 08:28:25;;;;;;;14.63;8.57;;;11.00;98.80;;;;;;7594353;19;20019;-73
2023/04/27 08:30:58;;;;;;;13.50;7.80;;;11.10;98.90;;;;;;7598677;19;20035;-73
2023/04/27 08:33:30;;;;;;;16.42;9.10;;;11.20;98.10;;;;;;7593745;19;20591;-74
2023/04/27 08:36:03;;;;;;;21.08;9.02;;;11.20;98.60;;;;;;7587266;19;21134;-71
2023/04/27 08:38:36;;;;;;;20.90;9.25;;;11.30;97.10;;;;;;7595197;19;21100;-74
2023/04/27 08:41:08;;;;;;;14.93;8.13;;;11.40;98.50;;;;;;7590380;19;20023;-71
2023/04/27 08:43:54;;;;;;;18.17;8.63;;;11.50;97.50;;;;;;7592586;19;20553;-73
2023/04/27 08:46:30;;;;;;;16.73;8.00;;;11.60;97.30;;;;;;7599676;19;20015;-71
2023/04/27 08:49:02;;;;;;;11.13;7.20;;;11.90;98.30;;;;;;7585356;19;21184;-71
2023/04/27 08:51:35;;;;;;;12.05;7.85;;;11.80;95.10;;;;;;7575505;19;20382;-72
2023/04/27 08:54:07;;;;;;;18.20;8.30;;;12.00;96.00;;;;;;7591692;19;20022;-74
2023/04/27 08:56:40;;;;;;;11.23;7.65;;;12.10;95.00;;;;;;7596321;19;20010;-73
2023/04/27 08:59:13;;;;;;;11.25;7.63;;;12.20;95.50;;;;;;7601593;19;20025;-71
2023/04/27 09:01:48;;;;;;;13.18;7.50;;;12.30;94.10;;;;;;7599658;19;20014;-73
2023/04/27 09:04:20;;;;;;;16.60;8.32;;;12.40;94.30;;;;;;7616932;19;20018;-74
2023/04/27 09:06:54;;;;;;;13.73;8.20;;;12.50;92.70;;;;;;7611201;19;20961;-71
2023/04/27 09:09:26;;;;;;;14.55;8.10;;;12.60;91.10;;;;;;7606480;19;20029;-74
2023/04/27 09:11:59;;;;;;;14.23;7.68;;;12.60;91.50;;;;;;7603048;19;20032;-71
2023/04/27 09:14:34;;;;;;;16.20;8.00;;;12.60;90.90;;;;;;7593577;19;20451;-72
2023/04/27 09:17:07;;;;;;;12.73;7.22;;;12.80;90.20;;;;;;7604407;19;20018;-73
2023/04/27 09:19:40;;;;;;;15.43;7.20;;;12.90;90.30;;;;;;7579889;19;20026;-74
2023/04/27 09:22:14;;;;;;;15.90;7.22;;;12.80;86.30;;;;;;7604862;19;20277;-72
2023/04/27 09:24:51;;;;;;;12.18;6.60;;;12.90;85.90;;;;;;7590483;19;20133;-73
2023/04/27 09:27:23;;;;;;;16.08;6.28;;;13.00;85.90;;;;;;7591532;19;20367;-73
2023/04/27 09:29:55;;;;;;;12.05;6.53;;;13.20;85.00;;;;;;7585900;19;20860;-73
2023/04/27 09:32:27;;;;;;;11.13;6.32;;;13.30;83.70;;;;;;7595183;19;20022;-74
2023/04/27 09:34:59;;;;;;;13.10;7.30;;;13.20;82.80;;;;;;7597619;19;20086;-74
2023/04/27 09:37:32;;;;;;;11.70;6.65;;;13.40;83.10;;;;;;7604672;19;20026;-73
2023/04/27 09:40:05;;;;;;;12.73;6.03;;;13.50;79.90;;;;;;7584342;19;20022;-72
2023/04/27 09:42:38;;;;;;;9.20;4.70;;;13.60;79.50;;;;;;7582635;19;20018;-73
2023/04/27 09:45:11;;;;;;;9.25;4.78;;;13.60;74.40;;;;;;7585112;19;21068;-72
2023/04/27 09:47:44;;;;;;;10.40;5.22;;;13.60;70.50;;;;;;7555991;19;20093;-73
2023/04/27 09:50:17;;;;;;;9.98;4.82;;;13.70;74.80;;;;;;6570707;19;10000879;-74
2023/04/27 09:52:49;;;;;;;9.13;4.60;;;13.80;73.40;;;;;;6553917;19;9999801;-73
2023/04/27 09:56:09;;;;;;;9.43;4.40;;;14.00;74.40;;;;;;7565173;19;21078;-73
2023/04/27 09:59:07;;;;;;;10.65;4.97;;;14.10;70.20;;;;;;7565023;19;20360;-74
2023/04/27 10:01:47;;;;;;;7.88;5.30;;;14.20;73.50;;;;;;7534946;19;20011;-73
2023/04/27 10:04:36;;;;;;;12.73;5.55;;;14.20;72.00;;;;;;7567311;19;20017;-72
2023/04/27 10:07:14;;;;;;;14.70;5.80;;;14.10;71.60;;;;;;7568652;19;20018;-72
2023/04/27 10:09:48;;;;;;;10.40;5.50;;;14.20;73.10;;;;;;7563580;19;20081;-72
2023/04/27 10:12:35;;;;;;;9.60;6.32;;;14.20;73.40;;;;;;7587533;19;20018;-73
2023/04/27 10:15:16;;;;;;;8.77;5.88;;;14.10;72.20;;;;;;7586576;19;20031;-72
2023/04/27 10:17:52;;;;;;;10.52;5.97;;;14.20;74.30;;;;;;7587477;19;20074;-74
2023/04/27 10:20:29;;;;;;;12.15;5.68;;;14.50;75.20;;;;;;7576626;19;20089;-74
2023/04/27 10:23:03;;;;;;;9.00;6.25;;;14.60;74.10;;;;;;7589259;19;20021;-72
2023/04/27 10:25:40;;;;;;;10.07;5.47;;;14.60;74.00;;;;;;7548506;19;20522;-74
2023/04/27 10:28:20;;;;;;;9.02;5.57;;;14.70;73.00;;;;;;7569474;19;20271;-73
2023/04/27 10:30:52;;;;;;;6.80;4.82;;;14.50;71.40;;;;;;7573695;19;20443;-74
2023/04/27 10:33:24;;;;;;;10.18;5.40;;;14.50;72.90;;;;;;7583158;19;20011;-74
2023/04/27 10:35:59;;;;;;;10.90;5.78;;;14.70;72.70;;;;;;7568557;19;20031;-74
2023/04/27 10:38:31;;;;;;;10.80;5.63;;;14.60;72.70;;;;;;7579716;19;20049;-73
2023/04/27 10:41:12;;;;;;;13.77;6.03;;;14.60;72.20;;;;;;7558553;19;20022;-74
2023/04/27 10:43:45;;;;;;;11.40;4.70;;;14.50;71.70;;;;;;7571014;19;20022;-73
2023/04/27 10:46:17;;;;;;;11.30;5.57;;;14.40;71.10;;;;;;7577833;19;20033;-72
2023/04/27 10:48:49;;;;;;;8.32;4.72;;;14.50;72.40;;;;;;7575763;19;20098;-73
2023/04/27 10:51:25;;;;;;;10.73;5.35;;;14.60;73.10;;;;;;7581743;19;20026;-74
2023/04/27 10:53:59;;;;;;;13.65;5.60;;;14.70;70.20;;;;;;7559850;19;20018;-73
2023/04/27 10:56:32;;;;;;;;;;;14.70;72.10;;;;;;7564144;19;20451;-74
2023/04/27 10:59:04;;;;;;;9.68;5.50;;;14.70;71.00;;;;;;7567922;19;19934;-74
2023/04/27 11:01:36;;;;;;;8.23;4.95;;;14.60;71.00;;;;;;7559409;19;20624;-74
2023/04/27 11:04:09;;;;;;;12.02;5.25;;;14.60;70.20;;;;;;7040214;19;9999825;-74
2023/04/27 11:06:45;;;;;;;9.45;5.05;;;14.70;70.30;;;;;;7548898;19;20094;-72
2023/04/27 11:09:27;;;;;;;9.13;5.30;;;14.90;70.60;;;;;;7566957;19;20018;-72
2023/04/27 11:11:59;;;;;;;9.52;5.10;;;14.70;68.60;;;;;;7579038;19;20015;-74
2023/04/27 11:14:33;;;;;;;7.75;4.90;;;14.60;70.10;;;;;;7584851;19;20090;-73
2023/04/27 11:17:06;;;;;;;11.65;4.88;;;14.70;70.30;;;;;;7592042;19;20022;-72
2023/04/27 11:19:48;;;;;;;6.57;3.97;;;14.60;68.80;;;;;;7583022;19;20013;-74
2023/04/27 11:22:20;;;;;;;12.57;4.28;;;14.50;69.10;;;;;;7592673;19;20026;-74
2023/04/27 11:24:53;;;;;;;9.55;4.25;;;14.60;69.50;;;;;;7570419;19;20043;-74
2023/04/27 11:27:36;;;;;;;8.18;4.10;;;14.70;68.50;;;;;;7555180;19;20085;-72
2023/04/27 11:30:20;;;;;;;7.55;4.22;;;14.90;70.70;;;;;;7580792;19;20022;-74
2023/04/27 11:32:52;;;;;;;;;;;14.80;68.10;;;;;;7597698;19;20109;-71
2023/04/27 11:35:34;;;;;;;6.97;3.90;;;15.10;67.10;;;;;;7574051;19;20252;-73
2023/04/27 11:38:14;;;;;;;6.05;4.07;;;15.10;65.00;;;;;;7559640;19;20021;-73
2023/04/27 11:40:57;;;;;;;4.75;2.97;;;15.30;69.30;;;;;;7551274;19;20021;-72
2023/04/27 11:43:30;;;;;;;6.80;3.45;;;15.70;66.90;;;;;;7561972;19;20018;-73
2023/04/27 11:46:04;;;;;;;4.93;3.20;;;15.90;64.40;;;;;;7567383;19;20541;-71
2023/04/27 11:48:38;;;;;;;8.93;4.15;;;15.90;64.60;;;;;;7582637;19;20042;-73
2023/04/27 11:51:11;;;;;;;7.28;3.58;;;16.10;65.50;;;;;;7588904;19;20056;-73
2023/04/27 11:53:47;;;;;;;;;;;16.10;65.30;;;;;;7576111;19;20420;-73
2023/04/27 11:56:19;;;;;;;10.43;4.03;;;16.60;63.90;;;;;;7584278;19;19941;-73
2023/04/27 11:58:51;;;;;;;4.93;3.35;;;16.70;61.00;;;;;;7568128;19;20021;-73
2023/04/27 12:01:23;;;;;;;4.95;3.70;;;17.00;63.30;;;;;;7584253;19;20015;-73
2023/04/27 12:04:09;;;;;;;12.32;3.40;;;17.50;63.70;;;;;;7577784;19;20018;-72
2023/04/27 12:06:42;;;;;;;8.23;2.92;;;17.40;60.50;;;;;;7567382;19;20018;-74
2023/04/27 12:09:16;;;;;;;6.33;2.93;;;17.30;61.70;;;;;;7568421;19;20474;-71
2023/04/27 12:11:48;;;;;;;5.85;3.95;;;16.90;61.60;;;;;;7562829;19;20022;-74
2023/04/27 12:14:20;;;;;;;5.63;3.42;;;16.70;62.10;;;;;;7585479;19;20425;-73
2023/04/27 12:16:52;;;;;;;4.80;2.75;;;16.10;62.40;;;;;;7568586;19;20014;-74
2023/04/27 12:19:24;;;;;;;7.05;3.30;;;16.00;63.90;;;;;;7584290;19;20050;-73
2023/04/27 12:21:57;;;;;;;7.70;3.65;;;15.70;62.10;;;;;;7563582;19;20019;-72
2023/04/27 12:24:30;;;;;;;6.97;3.80;;;15.80;65.20;;;;;;7555115;19;20538;-74
2023/04/27 12:27:03;;;;;;;6.93;3.40;;;15.70;64.70;;;;;;7581197;19;20025;-73
2023/04/27 12:29:36;;;;;;;6.95;3.17;;;15.70;64.60;;;;;;7558953;19;20279;-73
2023/04/27 12:32:08;;;;;;;6.00;3.00;;;15.70;64.70;;;;;;7568028;19;20018;-73
2023/04/27 12:34:41;;;;;;;5.82;3.72;;;15.70;65.60;;;;;;7579434;19;20076;-72
2023/04/27 12:37:14;;;;;;;6.18;3.70;;;15.80;64.90;;;;;;7582157;19;20059;-73
2023/04/27 12:39:46;;;;;;;5.70;3.20;;;15.80;64.80;;;;;;7577472;19;20085;-73
2023/04/27 12:42:22;;;;;;;9.20;3.30;;;16.00;65.10;;;;;;7572909;19;20019;-74
2023/04/27 12:44:55;;;;;;;7.00;3.05;;;16.10;63.90;;;;;;7572908;19;20023;-74
2023/04/27 12:47:28;;;;;;;5.32;3.00;;;16.10;63.60;;;;;;7590844;19;20014;-73
2023/04/27 12:50:20;;;;;;;7.68;3.95;;;16.40;63.60;;;;;;7573649;19;20037;-73
2023/04/27 12:52:52;;;;;;;7.88;3.78;;;16.20;62.20;;;;;;7577829;19;20941;-73
2023/04/27 12:55:25;;;;;;;5.10;3.33;;;16.10;63.10;;;;;;7555129;19;20866;-73
2023/04/27 12:58:05;;;;;;;5.88;3.55;;;16.10;63.40;;;;;;7588633;19;20014;-73
2023/04/27 13:00:37;;;;;;;6.50;3.63;;;16.20;63.50;;;;;;7598850;19;20574;-73
2023/04/27 13:03:10;;;;;;;7.57;3.42;;;16.10;63.10;;;;;;7584128;19;20041;-72
2023/04/27 13:05:43;;;;;;;8.40;3.72;;;16.10;64.20;;;;;;7599940;19;20011;-72
2023/04/27 13:08:19;;;;;;;9.63;3.35;;;16.40;65.00;;;;;;7580085;19;20021;-74
2023/04/27 13:10:52;;;;;;;6.53;3.33;;;16.80;64.60;;;;;;7597079;19;20359;-74
2023/04/27 13:13:24;;;;;;;4.75;2.90;;;17.10;63.20;;;;;;7588994;19;20006;-74
2023/04/27 13:15:57;;;;;;;3.92;2.95;;;17.20;63.90;;;;;;7595279;19;20537;-74
2023/04/27 13:18:32;;;;;;;6.63;2.90;;;17.60;63.50;;;;;;7574887;19;20055;-71